Time;durP1;ratioP1;P1;durP2;ratioP2;P2;SDS_P1;SDS_P2;PMS_P1;PMS_P2;Temp;Humidity;BMP_temperature;BMP_pressure;BME280_temperature;BME280_humidity;BME280_pressure;Samples;Min_cycle;Max_cycle;Signal;HPM_P1;HPM_P2
2023/01/14 00:01:00;;;;;;;6.35;1.20;;;;;;;;;;5039701;28;20061;-79
2023/01/14 00:03:27;;;;;;;7.30;1.25;;;;;;;;;;5018506;28;20053;-80
2023/01/14 00:05:55;;;;;;;3.35;0.60;;;;;;;;;;5023318;28;20073;-79
2023/01/14 00:08:22;;;;;;;7.28;1.05;;;;;;;;;;5020082;28;20827;-79
2023/01/14 00:10:48;;;;;;;4.35;0.80;;;;;;;;;;5022592;28;20058;-78
2023/01/14 00:13:14;;;;;;;10.07;1.30;;;;;;;;;;5037052;28;20088;-79
2023/01/14 00:15:56;;;;;;;4.15;0.85;;;;;;;;;;5045753;28;20042;-80
2023/01/14 00:18:23;;;;;;;8.18;1.48;;;;;;;;;;5023434;28;20096;-78
2023/01/14 00:21:06;;;;;;;6.50;0.93;;;;;;;;;;5012937;28;20120;-79
2023/01/14 00:23:34;;;;;;;7.13;0.95;;;;;;;;;;5013626;28;20054;-80
2023/01/14 00:26:11;;;;;;;5.22;0.77;;;;;;;;;;5040781;28;20541;-78
2023/01/14 00:28:37;;;;;;;4.55;0.73;;;;;;;;;;5034671;28;20067;-78
2023/01/14 00:31:12;;;;;;;5.95;1.00;;;;;;;;;;5035918;28;20080;-79
2023/01/14 00:33:39;;;;;;;5.57;1.00;;;;;;;;;;5019804;28;20060;-78
2023/01/14 00:36:06;;;;;;;5.03;0.93;;;;;;;;;;5033495;28;20069;-78
2023/01/14 00:38:33;;;;;;;7.57;1.13;;;;;;;;;;5037459;28;20091;-78
2023/01/14 00:41:06;;;;;;;2.92;0.80;;;;;;;;;;5033261;28;20136;-79
2023/01/14 00:43:36;;;;;;;7.45;1.27;;;;;;;;;;5015629;28;20057;-80
2023/01/14 00:46:05;;;;;;;6.18;0.90;;;;;;;;;;5026086;28;20053;-80
2023/01/14 00:48:32;;;;;;;3.47;0.80;;;;;;;;;;5029773;28;20516;-78
2023/01/14 00:50:59;;;;;;;9.50;1.20;;;;;;;;;;5023607;28;20060;-78
2023/01/14 00:53:26;;;;;;;7.93;1.00;;;;;;;;;;5016156;28;20081;-80
2023/01/14 00:55:53;;;;;;;8.57;0.88;;;;;;;;;;5012184;28;20064;-77
2023/01/14 00:58:19;;;;;;;4.80;0.90;;;;;;;;;;5030614;28;20045;-79
2023/01/14 01:00:45;;;;;;;9.98;1.30;;;;;;;;;;5026540;28;20467;-80
2023/01/14 01:03:12;;;;;;;12.02;1.02;;;;;;;;;;5009867;28;20152;-79
2023/01/14 01:05:39;;;;;;;6.95;1.13;;;;;;;;;;5009862;28;20056;-78
2023/01/14 01:08:07;;;;;;;4.68;0.90;;;;;;;;;;5017273;28;20132;-78
2023/01/14 01:10:34;;;;;;;10.35;1.38;;;;;;;;;;5029524;28;20117;-78
2023/01/14 01:13:02;;;;;;;7.82;1.20;;;;;;;;;;5025960;28;20141;-80
2023/01/14 01:15:31;;;;;;;8.20;1.00;;;;;;;;;;5026601;28;20128;-78
2023/01/14 01:17:58;;;;;;;8.93;1.95;;;;;;;;;;5024958;28;20049;-79
2023/01/14 01:20:24;;;;;;;4.40;1.00;;;;;;;;;;5012984;28;20061;-80
2023/01/14 01:22:51;;;;;;;7.80;1.10;;;;;;;;;;5012424;28;20057;-80
2023/01/14 01:25:18;;;;;;;6.15;1.00;;;;;;;;;;5011805;28;20050;-79
2023/01/14 01:27:45;;;;;;;9.48;1.02;;;;;;;;;;5021939;28;20152;-79
2023/01/14 01:30:11;;;;;;;7.95;0.90;;;;;;;;;;5030709;28;20061;-80
2023/01/14 01:32:38;;;;;;;8.55;1.02;;;;;;;;;;5029277;28;20131;-80
2023/01/14 01:35:05;;;;;;;3.97;0.90;;;;;;;;;;5031339;28;20045;-79
2023/01/14 01:37:31;;;;;;;4.55;0.90;;;;;;;;;;5022155;28;20088;-78
2023/01/14 01:39:58;;;;;;;10.85;1.17;;;;;;;;;;5005816;28;20046;-79
2023/01/14 01:42:28;;;;;;;7.03;1.38;;;;;;;;;;5007994;28;20054;-79
2023/01/14 01:45:12;;;;;;;5.50;1.00;;;;;;;;;;5011337;28;20050;-80
2023/01/14 01:47:38;;;;;;;7.80;1.33;;;;;;;;;;5009843;28;20085;-81
2023/01/14 01:50:05;;;;;;;4.50;0.93;;;;;;;;;;5012514;28;20056;-78
2023/01/14 01:52:31;;;;;;;4.25;0.98;;;;;;;;;;5026050;28;20068;-79
2023/01/14 01:55:01;;;;;;;5.55;0.98;;;;;;;;;;5010992;28;20056;-78
2023/01/14 01:57:28;;;;;;;8.65;1.17;;;;;;;;;;5012631;28;20442;-80
2023/01/14 01:59:57;;;;;;;4.93;0.80;;;;;;;;;;5013020;28;20046;-79
2023/01/14 02:02:24;;;;;;;5.22;0.85;;;;;;;;;;5011694;28;20049;-80
2023/01/14 02:04:51;;;;;;;6.00;1.00;;;;;;;;;;5013089;28;20053;-79
2023/01/14 02:07:20;;;;;;;3.67;0.90;;;;;;;;;;5012834;28;20563;-79
2023/01/14 02:09:50;;;;;;;6.57;1.00;;;;;;;;;;5014027;28;20049;-79
2023/01/14 02:12:23;;;;;;;8.68;1.05;;;;;;;;;;5014065;28;20113;-79
2023/01/14 02:15:05;;;;;;;4.53;0.77;;;;;;;;;;5031321;28;20045;-79
2023/01/14 02:17:37;;;;;;;10.93;0.90;;;;;;;;;;5032382;28;20053;-81
2023/01/14 02:20:18;;;;;;;6.15;0.75;;;;;;;;;;5012040;28;20057;-77
2023/01/14 02:23:13;;;;;;;7.30;1.33;;;;;;;;;;5010482;28;20081;-79
2023/01/14 02:25:39;;;;;;;8.15;1.65;;;;;;;;;;5011947;28;20053;-78
2023/01/14 02:28:09;;;;;;;3.42;1.00;;;;;;;;;;5012353;28;20049;-77
2023/01/14 02:30:58;;;;;;;4.10;0.95;;;;;;;;;;5011716;28;20108;-77
2023/01/14 02:33:41;;;;;;;6.72;1.13;;;;;;;;;;5007302;28;20049;-79
2023/01/14 02:36:29;;;;;;;9.20;1.10;;;;;;;;;;5019623;28;20121;-78
2023/01/14 02:39:07;;;;;;;8.52;0.90;;;;;;;;;;5021189;28;20057;-78
2023/01/14 02:44:33;;;;;;;9.60;1.10;;;;;;;;;;5009726;28;20049;-78
2023/01/14 02:47:02;;;;;;;7.50;1.02;;;;;;;;;;5006585;28;20061;-77
2023/01/14 02:49:31;;;;;;;3.90;0.70;;;;;;;;;;5019856;28;20055;-77
2023/01/14 02:51:58;;;;;;;10.02;1.10;;;;;;;;;;5010478;28;20045;-78
2023/01/14 02:54:25;;;;;;;10.35;1.45;;;;;;;;;;5005967;28;20050;-80
2023/01/14 02:56:52;;;;;;;7.78;1.17;;;;;;;;;;5007135;28;20133;-78
2023/01/14 02:59:38;;;;;;;5.05;0.85;;;;;;;;;;5007837;28;20053;-78
2023/01/14 03:02:23;;;;;;;3.92;0.95;;;;;;;;;;5008197;28;20373;-79
2023/01/14 03:05:19;;;;;;;3.90;0.80;;;;;;;;;;5007274;28;20088;-80
2023/01/14 03:08:21;;;;;;;9.50;0.95;;;;;;;;;;4994382;28;20053;-77
2023/01/14 03:10:49;;;;;;;5.97;1.30;;;;;;;;;;4967798;28;20064;-77
2023/01/14 03:13:21;;;;;;;6.20;1.10;;;;;;;;;;5004135;28;20087;-76
2023/01/14 03:15:53;;;;;;;7.38;0.90;;;;;;;;;;5027452;28;20404;-77
2023/01/14 03:18:29;;;;;;;7.57;1.17;;;;;;;;;;5028962;28;20041;-78
2023/01/14 03:20:59;;;;;;;12.25;1.33;;;;;;;;;;5027520;28;20214;-78
2023/01/14 03:23:27;;;;;;;5.45;1.23;;;;;;;;;;5019693;28;20128;-78
2023/01/14 03:25:53;;;;;;;6.80;1.15;;;;;;;;;;5009779;28;20050;-78
2023/01/14 03:28:23;;;;;;;10.50;1.17;;;;;;;;;;5014770;28;20060;-79
2023/01/14 03:30:52;;;;;;;6.40;1.10;;;;;;;;;;5012517;28;20053;-79
2023/01/14 03:33:23;;;;;;;6.25;1.00;;;;;;;;;;5019905;28;20054;-80
2023/01/14 03:35:50;;;;;;;13.43;1.20;;;;;;;;;;5037920;28;20091;-81
2023/01/14 03:38:31;;;;;;;7.22;1.00;;;;;;;;;;5031479;28;20226;-78
2023/01/14 03:40:59;;;;;;;8.27;1.08;;;;;;;;;;5014935;28;20054;-78
2023/01/14 03:43:32;;;;;;;11.10;1.30;;;;;;;;;;5013387;28;20107;-78
2023/01/14 03:45:58;;;;;;;8.63;1.20;;;;;;;;;;5012349;28;20056;-77
2023/01/14 03:48:25;;;;;;;7.53;1.17;;;;;;;;;;5024602;28;20046;-79
2023/01/14 03:50:51;;;;;;;9.05;1.17;;;;;;;;;;5031517;28;20466;-78
2023/01/14 03:53:31;;;;;;;6.93;1.13;;;;;;;;;;5017025;28;20155;-78
2023/01/14 03:56:00;;;;;;;10.75;1.13;;;;;;;;;;5013992;28;20072;-79
2023/01/14 03:58:48;;;;;;;5.32;1.30;;;;;;;;;;5015789;28;20056;-78
2023/01/14 04:01:17;;;;;;;14.30;1.40;;;;;;;;;;5033462;28;20045;-80
2023/01/14 04:03:44;;;;;;;5.55;1.17;;;;;;;;;;5029748;28;20159;-77
2023/01/14 04:06:12;;;;;;;11.57;1.10;;;;;;;;;;5027178;28;20130;-79
2023/01/14 04:08:38;;;;;;;7.25;1.40;;;;;;;;;;5031147;28;20064;-77
2023/01/14 04:11:05;;;;;;;12.25;1.23;;;;;;;;;;5033534;28;20140;-79
2023/01/14 04:16:16;;;;;;;10.30;1.35;;;;;;;;;;5009606;28;20149;-78
2023/01/14 04:18:43;;;;;;;11.38;1.48;;;;;;;;;;5017973;28;20041;-80
2023/01/14 04:21:09;;;;;;;8.68;1.40;;;;;;;;;;5035177;28;20049;-79
2023/01/14 04:23:37;;;;;;;11.43;1.67;;;;;;;;;;5029181;28;20137;-79
2023/01/14 04:26:03;;;;;;;7.55;1.90;;;;;;;;;;5016198;28;20054;-78
2023/01/14 04:28:30;;;;;;;8.95;1.25;;;;;;;;;;5014488;28;20319;-79
2023/01/14 04:30:56;;;;;;;5.78;0.93;;;;;;;;;;5032483;28;20056;-79
2023/01/14 04:33:23;;;;;;;8.38;1.23;;;;;;;;;;5031989;28;20060;-78
2023/01/14 04:35:49;;;;;;;7.80;1.35;;;;;;;;;;5033910;28;20085;-79
2023/01/14 04:38:17;;;;;;;10.95;2.25;;;;;;;;;;5030924;28;20152;-79
2023/01/14 04:40:43;;;;;;;11.40;1.40;;;;;;;;;;5034723;28;20054;-78
2023/01/14 04:43:09;;;;;;;10.10;1.25;;;;;;;;;;5032951;28;20060;-78
2023/01/14 04:45:42;;;;;;;8.50;1.25;;;;;;;;;;5012543;28;20137;-79
2023/01/14 04:48:09;;;;;;;9.10;0.95;;;;;;;;;;5012801;28;20060;-77
2023/01/14 04:50:41;;;;;;;14.65;1.40;;;;;;;;;;5016913;28;20053;-78
2023/01/14 04:53:08;;;;;;;4.05;0.82;;;;;;;;;;5007668;28;20053;-79
2023/01/14 04:55:37;;;;;;;8.23;2.08;;;;;;;;;;5025905;28;20042;-77
2023/01/14 04:58:05;;;;;;;5.57;1.15;;;;;;;;;;5028593;28;20079;-77
2023/01/14 05:00:32;;;;;;;11.55;1.30;;;;;;;;;;5015146;28;20046;-78
2023/01/14 05:03:00;;;;;;;10.15;2.08;;;;;;;;;;5017587;28;20057;-78
2023/01/14 05:05:27;;;;;;;7.68;0.98;;;;;;;;;;5022764;28;20045;-78
2023/01/14 05:07:53;;;;;;;10.55;0.90;;;;;;;;;;5010592;28;20057;-80
2023/01/14 05:10:19;;;;;;;5.03;1.27;;;;;;;;;;5027577;28;20081;-79
2023/01/14 05:12:59;;;;;;;5.35;1.27;;;;;;;;;;5033029;28;20144;-80
2023/01/14 05:15:28;;;;;;;6.15;0.80;;;;;;;;;;5014829;28;20056;-78
2023/01/14 05:17:55;;;;;;;7.25;1.10;;;;;;;;;;5013179;28;20687;-80
2023/01/14 05:20:26;;;;;;;6.57;1.05;;;;;;;;;;5012431;28;20106;-78
2023/01/14 05:22:57;;;;;;;5.45;0.80;;;;;;;;;;5011142;28;20077;-79
2023/01/14 05:25:24;;;;;;;6.75;0.82;;;;;;;;;;5013202;28;20049;-78
2023/01/14 05:27:50;;;;;;;5.00;1.05;;;;;;;;;;5016110;28;20054;-79
2023/01/14 05:30:16;;;;;;;7.15;0.90;;;;;;;;;;5011351;28;20053;-78
2023/01/14 05:32:43;;;;;;;7.05;1.20;;;;;;;;;;5009711;28;20042;-78
2023/01/14 05:35:09;;;;;;;11.98;1.10;;;;;;;;;;5013391;28;20045;-78
2023/01/14 05:37:35;;;;;;;8.25;1.35;;;;;;;;;;5017406;28;20118;-80
2023/01/14 05:40:02;;;;;;;9.30;1.98;;;;;;;;;;5028733;28;20057;-80
2023/01/14 05:48:02;;;;;;;7.40;1.77;;;;;;;;;;5031068;28;20191;-79
2023/01/14 05:50:28;;;;;;;6.47;0.80;;;;;;;;;;5019079;28;20050;-77
2023/01/14 05:52:55;;;;;;;5.00;0.90;;;;;;;;;;5010385;28;20092;-77
2023/01/14 05:55:21;;;;;;;8.73;1.13;;;;;;;;;;5020810;28;20056;-77
2023/01/14 05:57:48;;;;;;;11.68;1.23;;;;;;;;;;5028226;28;20049;-79
2023/01/14 06:08:29;;;;;;;6.93;1.27;;;;;;;;;;5028763;28;20779;-79
2023/01/14 06:10:56;;;;;;;8.95;1.40;;;;;;;;;;5012392;28;20869;-78
2023/01/14 06:13:22;;;;;;;11.27;1.52;;;;;;;;;;5006826;28;20720;-78
2023/01/14 06:15:52;;;;;;;5.68;1.00;;;;;;;;;;5014329;28;20057;-78
2023/01/14 06:18:22;;;;;;;10.25;1.42;;;;;;;;;;5011122;28;20054;-79
2023/01/14 06:20:50;;;;;;;8.73;1.05;;;;;;;;;;5010103;28;20573;-79
2023/01/14 06:23:18;;;;;;;8.15;1.25;;;;;;;;;;5007073;28;20053;-79
2023/01/14 06:25:45;;;;;;;5.82;1.17;;;;;;;;;;5011575;28;20076;-78
2023/01/14 06:28:12;;;;;;;7.68;1.23;;;;;;;;;;5009160;28;20132;-79
2023/01/14 06:30:39;;;;;;;9.55;1.25;;;;;;;;;;5009843;28;20057;-79
2023/01/14 06:33:08;;;;;;;15.73;1.55;;;;;;;;;;5010269;28;20064;-79
2023/01/14 06:35:39;;;;;;;3.97;1.10;;;;;;;;;;5024408;28;20471;-79
2023/01/14 06:38:05;;;;;;;15.23;1.30;;;;;;;;;;5030948;28;20049;-78
2023/01/14 06:40:32;;;;;;;9.60;1.67;;;;;;;;;;5018855;28;20054;-78
2023/01/14 06:42:58;;;;;;;12.60;1.45;;;;;;;;;;5011925;28;20077;-80
2023/01/14 06:45:25;;;;;;;6.03;1.38;;;;;;;;;;5026189;28;20566;-78
2023/01/14 06:47:52;;;;;;;4.40;1.10;;;;;;;;;;5017619;28;20054;-77
2023/01/14 06:50:19;;;;;;;8.85;1.30;;;;;;;;;;5018574;28;20394;-78
2023/01/14 06:52:45;;;;;;;9.10;1.33;;;;;;;;;;5025904;28;20061;-77
2023/01/14 06:55:12;;;;;;;11.13;1.48;;;;;;;;;;5021111;28;20042;-79
2023/01/14 06:57:40;;;;;;;6.80;1.27;;;;;;;;;;5022210;28;20045;-78
2023/01/14 07:00:07;;;;;;;12.05;1.70;;;;;;;;;;5020010;28;20045;-79
2023/01/14 07:02:33;;;;;;;7.70;1.27;;;;;;;;;;5022661;28;20042;-81
2023/01/14 07:04:59;;;;;;;17.98;1.75;;;;;;;;;;5027488;28;20045;-78
2023/01/14 07:07:26;;;;;;;11.35;1.42;;;;;;;;;;5031043;28;20455;-78
2023/01/14 07:09:52;;;;;;;12.75;1.42;;;;;;;;;;5026670;28;20045;-78
2023/01/14 07:12:19;;;;;;;11.35;1.40;;;;;;;;;;5035943;28;20124;-77
2023/01/14 07:14:45;;;;;;;10.43;1.70;;;;;;;;;;5036556;28;20049;-79
2023/01/14 07:17:11;;;;;;;12.60;1.50;;;;;;;;;;5018255;28;20054;-78
2023/01/14 07:19:38;;;;;;;12.32;1.48;;;;;;;;;;5015972;28;20529;-79
2023/01/14 07:22:05;;;;;;;11.88;1.77;;;;;;;;;;5016760;28;20050;-80
2023/01/14 07:24:31;;;;;;;13.25;1.67;;;;;;;;;;5034879;28;20639;-78
2023/01/14 07:26:57;;;;;;;13.45;1.27;;;;;;;;;;5020520;28;20058;-79
2023/01/14 07:29:24;;;;;;;12.80;1.65;;;;;;;;;;5019159;28;20140;-78
2023/01/14 07:31:52;;;;;;;9.50;1.83;;;;;;;;;;5024518;28;20050;-78
2023/01/14 07:34:18;;;;;;;8.77;1.85;;;;;;;;;;5023989;28;20053;-78
2023/01/14 07:36:45;;;;;;;11.05;1.63;;;;;;;;;;5022914;28;20041;-79
2023/01/14 07:39:11;;;;;;;15.07;1.65;;;;;;;;;;5023031;28;20049;-79
2023/01/14 07:41:38;;;;;;;11.93;1.60;;;;;;;;;;5018564;28;20473;-77
2023/01/14 07:44:05;;;;;;;13.48;2.03;;;;;;;;;;5020813;28;20506;-79
2023/01/14 07:46:32;;;;;;;16.35;2.00;;;;;;;;;;5021764;28;20061;-78
2023/01/14 07:48:59;;;;;;;10.77;1.60;;;;;;;;;;5021287;28;20144;-79
2023/01/14 07:51:25;;;;;;;15.00;1.85;;;;;;;;;;5021645;28;20046;-80
2023/01/14 07:53:52;;;;;;;21.52;2.38;;;;;;;;;;5023225;28;20091;-79
2023/01/14 07:56:18;;;;;;;9.98;2.05;;;;;;;;;;5020751;28;20054;-79
2023/01/14 07:58:46;;;;;;;13.43;2.10;;;;;;;;;;5030372;28;20045;-78
2023/01/14 08:01:13;;;;;;;11.85;1.85;;;;;;;;;;5022063;28;20149;-76
2023/01/14 08:03:39;;;;;;;15.18;1.95;;;;;;;;;;5018969;28;20494;-78
2023/01/14 08:06:06;;;;;;;17.40;2.10;;;;;;;;;;5033536;28;20049;-79
2023/01/14 08:08:33;;;;;;;16.52;1.98;;;;;;;;;;5032176;28;20132;-78
2023/01/14 08:11:00;;;;;;;15.20;1.80;;;;;;;;;;5039702;28;20081;-80
2023/01/14 08:13:27;;;;;;;10.57;1.75;;;;;;;;;;5040063;28;20049;-79
2023/01/14 08:15:57;;;;;;;15.68;1.80;;;;;;;;;;5045014;28;20136;-81
2023/01/14 08:18:24;;;;;;;8.85;1.98;;;;;;;;;;5043285;28;20068;-82
2023/01/14 08:20:57;;;;;;;15.52;2.08;;;;;;;;;;5027734;28;20084;-79
2023/01/14 08:23:23;;;;;;;15.65;2.17;;;;;;;;;;5020688;28;20121;-80
2023/01/14 08:25:49;;;;;;;16.13;1.90;;;;;;;;;;5025659;28;20050;-80
2023/01/14 08:28:16;;;;;;;11.80;1.67;;;;;;;;;;5021335;28;20155;-78
2023/01/14 08:30:42;;;;;;;15.75;2.10;;;;;;;;;;5031656;28;20056;-82
2023/01/14 08:33:09;;;;;;;10.48;2.00;;;;;;;;;;5021644;28;20049;-79
2023/01/14 08:35:39;;;;;;;11.20;1.88;;;;;;;;;;5026769;28;20298;-81
2023/01/14 08:38:06;;;;;;;12.30;2.22;;;;;;;;;;5023035;28;20067;-81
2023/01/14 08:40:33;;;;;;;15.30;2.08;;;;;;;;;;5032152;28;20049;-83
2023/01/14 08:42:59;;;;;;;12.02;1.80;;;;;;;;;;5031648;28;20059;-81
2023/01/14 08:45:26;;;;;;;13.27;1.70;;;;;;;;;;5027505;28;20049;-80
2023/01/14 08:47:52;;;;;;;14.57;2.40;;;;;;;;;;5021276;28;20117;-80
2023/01/14 08:50:20;;;;;;;17.65;2.53;;;;;;;;;;5034680;28;20125;-78
2023/01/14 08:52:46;;;;;;;16.02;2.10;;;;;;;;;;5021581;28;20569;-80
2023/01/14 08:55:12;;;;;;;10.00;2.00;;;;;;;;;;5038864;28;20108;-81
2023/01/14 08:57:39;;;;;;;23.13;2.33;;;;;;;;;;5040114;28;20049;-81
2023/01/14 09:00:07;;;;;;;14.80;2.15;;;;;;;;;;5025210;28;20545;-80
2023/01/14 09:02:33;;;;;;;12.20;2.40;;;;;;;;;;5035035;28;20088;-81
2023/01/14 09:05:01;;;;;;;14.68;2.00;;;;;;;;;;5040553;28;20482;-81
2023/01/14 09:18:37;;;;;;;10.98;1.70;;;;;;;;;;5024626;28;20401;-79
2023/01/14 09:21:04;;;;;;;12.55;1.98;;;;;;;;;;5028118;28;20494;-77
2023/01/14 09:23:30;;;;;;;12.43;2.20;;;;;;;;;;5025183;28;20053;-79
2023/01/14 09:25:56;;;;;;;15.60;2.20;;;;;;;;;;5028556;28;20312;-79
2023/01/14 09:28:23;;;;;;;17.60;2.30;;;;;;;;;;5025778;28;20500;-79
2023/01/14 09:30:49;;;;;;;17.10;2.53;;;;;;;;;;5014764;28;20386;-77
2023/01/14 09:33:16;;;;;;;15.05;2.42;;;;;;;;;;5027128;28;20050;-78
2023/01/14 09:35:42;;;;;;;9.50;1.70;;;;;;;;;;5020485;28;20574;-79
2023/01/14 09:38:12;;;;;;;13.18;1.98;;;;;;;;;;5014915;28;20049;-81
2023/01/14 09:40:39;;;;;;;12.48;2.22;;;;;;;;;;5026936;28;20395;-76
2023/01/14 09:43:12;;;;;;;10.43;1.50;;;;;;;;;;5029221;28;20088;-79
2023/01/14 09:45:39;;;;;;;10.13;1.70;;;;;;;;;;5027823;28;20562;-80
2023/01/14 09:48:10;;;;;;;13.70;1.85;;;;;;;;;;5031865;28;20053;-80
2023/01/14 09:50:43;;;;;;;14.50;1.83;;;;;;;;;;5014407;28;20311;-80
2023/01/14 09:53:30;;;;;;;17.73;2.22;;;;;;;;;;5010614;28;20049;-78
2023/01/14 09:55:59;;;;;;;13.38;1.88;;;;;;;;;;5010405;28;20061;-77
2023/01/14 09:58:37;;;;;;;10.38;1.67;;;;;;;;;;5030928;28;20053;-80
2023/01/14 10:01:06;;;;;;;9.95;1.55;;;;;;;;;;5033541;28;20065;-78
2023/01/14 10:03:55;;;;;;;9.70;2.03;;;;;;;;;;5029840;28;20139;-80
2023/01/14 10:06:21;;;;;;;11.70;1.75;;;;;;;;;;5025721;28;20129;-80
2023/01/14 10:08:51;;;;;;;12.18;2.13;;;;;;;;;;5032886;28;20096;-80
2023/01/14 10:11:17;;;;;;;9.50;1.73;;;;;;;;;;5031121;28;20119;-79
2023/01/14 10:13:53;;;;;;;12.80;2.10;;;;;;;;;;5028542;28;20052;-79
2023/01/14 10:16:26;;;;;;;20.00;2.00;;;;;;;;;;5029102;28;20060;-79
2023/01/14 10:18:59;;;;;;;12.15;2.50;;;;;;;;;;5020536;28;20204;-79
2023/01/14 10:21:29;;;;;;;11.80;1.83;;;;;;;;;;5028391;28;20042;-78
2023/01/14 10:23:55;;;;;;;14.65;2.50;;;;;;;;;;5018473;28;20052;-79
2023/01/14 10:26:31;;;;;;;18.77;1.92;;;;;;;;;;5008521;28;20056;-78
2023/01/14 10:29:00;;;;;;;14.80;2.50;;;;;;;;;;5021851;28;20233;-79
2023/01/14 10:31:28;;;;;;;13.00;2.05;;;;;;;;;;5015061;28;20054;-79
2023/01/14 10:33:55;;;;;;;9.85;1.65;;;;;;;;;;5022446;28;20428;-79
2023/01/14 10:36:23;;;;;;;9.82;1.98;;;;;;;;;;5012807;28;20042;-79
2023/01/14 10:38:50;;;;;;;9.70;1.75;;;;;;;;;;5031283;28;20053;-80
2023/01/14 10:41:48;;;;;;;14.40;2.20;;;;;;;;;;5032741;28;20121;-78
2023/01/14 10:44:04;;;;;;;8.95;1.63;;;;;;;;;;5032884;28;20525;-79
2023/01/14 10:46:31;;;;;;;13.57;2.40;;;;;;;;;;5032438;28;20049;-80
2023/01/14 10:49:00;;;;;;;10.90;2.00;;;;;;;;;;5034439;28;20390;-79
2023/01/14 10:51:35;;;;;;;17.02;2.15;;;;;;;;;;5033885;28;20572;-79
2023/01/14 10:54:07;;;;;;;13.15;2.50;;;;;;;;;;5032280;28;20052;-80
2023/01/14 10:56:34;;;;;;;12.80;2.20;;;;;;;;;;5033748;28;20395;-80
2023/01/14 10:59:28;;;;;;;10.65;2.00;;;;;;;;;;5033300;28;20055;-79
2023/01/14 11:01:55;;;;;;;9.93;1.73;;;;;;;;;;5032615;28;20045;-80
2023/01/14 11:04:33;;;;;;;10.18;1.92;;;;;;;;;;5037184;28;20053;-79
2023/01/14 11:07:06;;;;;;;12.40;1.83;;;;;;;;;;5044490;28;20049;-80
2023/01/14 11:09:33;;;;;;;16.88;1.80;;;;;;;;;;5038274;28;20145;-79
2023/01/14 11:11:59;;;;;;;12.27;1.95;;;;;;;;;;5040225;28;20144;-79
2023/01/14 11:14:28;;;;;;;13.82;1.92;;;;;;;;;;5045692;28;20056;-78
2023/01/14 11:16:54;;;;;;;12.90;2.00;;;;;;;;;;5051909;28;20103;-79
2023/01/14 11:19:21;;;;;;;12.20;2.28;;;;;;;;;;5051978;28;20041;-79
2023/01/14 11:21:49;;;;;;;7.82;1.52;;;;;;;;;;5049736;28;20037;-79
2023/01/14 11:24:22;;;;;;;13.35;2.15;;;;;;;;;;5044385;28;20042;-80
2023/01/14 11:26:49;;;;;;;15.90;1.98;;;;;;;;;;5042898;28;20132;-79
2023/01/14 11:29:18;;;;;;;9.48;2.20;;;;;;;;;;5032837;28;20045;-79
2023/01/14 11:31:45;;;;;;;14.10;1.70;;;;;;;;;;5032986;28;20053;-78
2023/01/14 11:34:18;;;;;;;10.38;1.58;;;;;;;;;;5032274;28;20045;-79
2023/01/14 11:36:44;;;;;;;11.60;1.70;;;;;;;;;;5034281;28;20137;-80
2023/01/14 11:39:14;;;;;;;14.25;2.00;;;;;;;;;;5033331;28;20049;-79
2023/01/14 11:41:40;;;;;;;13.95;2.17;;;;;;;;;;5035978;28;20530;-79
2023/01/14 11:44:09;;;;;;;18.45;2.17;;;;;;;;;;5033284;28;20114;-78
2023/01/14 11:46:41;;;;;;;13.20;1.40;;;;;;;;;;5030064;28;20471;-78
2023/01/14 11:49:18;;;;;;;12.38;1.70;;;;;;;;;;5034372;28;20069;-77
2023/01/14 11:52:01;;;;;;;17.52;1.92;;;;;;;;;;5022074;28;20049;-78
2023/01/14 11:54:30;;;;;;;15.70;2.17;;;;;;;;;;5018756;28;20046;-79
2023/01/14 11:56:57;;;;;;;12.43;1.67;;;;;;;;;;5017580;28;20049;-79
2023/01/14 11:59:26;;;;;;;15.68;2.25;;;;;;;;;;5016052;28;20096;-79
2023/01/14 12:02:11;;;;;;;13.85;1.83;;;;;;;;;;5015716;28;20072;-79
2023/01/14 12:04:51;;;;;;;12.65;2.13;;;;;;;;;;5014536;28;20056;-79
2023/01/14 12:07:38;;;;;;;12.15;1.70;;;;;;;;;;5014846;28;20072;-79
2023/01/14 12:10:23;;;;;;;10.25;1.70;;;;;;;;;;5014606;28;20056;-79
2023/01/14 12:18:51;;;;;;;9.70;1.70;;;;;;;;;;5015862;28;20050;-78
2023/01/14 12:21:25;;;;;;;12.55;1.60;;;;;;;;;;5020650;28;20042;-79
2023/01/14 12:23:58;;;;;;;13.85;2.25;;;;;;;;;;5014919;28;20383;-79
2023/01/14 12:26:26;;;;;;;9.00;1.70;;;;;;;;;;5016414;28;20208;-79
2023/01/14 12:28:57;;;;;;;11.30;1.60;;;;;;;;;;5016459;28;20136;-79
2023/01/14 12:31:38;;;;;;;14.77;1.83;;;;;;;;;;5016685;28;20073;-79
2023/01/14 12:34:15;;;;;;;9.02;1.60;;;;;;;;;;5015666;28;20105;-79
2023/01/14 12:36:55;;;;;;;11.85;1.70;;;;;;;;;;5015997;28;20069;-79
2023/01/14 12:45:44;;;;;;;6.65;1.42;;;;;;;;;;5015760;28;20057;-80
2023/01/14 12:48:14;;;;;;;13.13;1.52;;;;;;;;;;5014293;28;20486;-80
2023/01/14 12:50:50;;;;;;;11.27;1.98;;;;;;;;;;5020356;28;20537;-79
2023/01/14 12:53:34;;;;;;;10.70;1.77;;;;;;;;;;5033134;28;20056;-79
2023/01/14 12:56:03;;;;;;;12.07;2.28;;;;;;;;;;5034584;28;20390;-79
2023/01/14 12:58:31;;;;;;;12.45;1.92;;;;;;;;;;5033782;28;20052;-79
2023/01/14 13:01:00;;;;;;;12.43;1.40;;;;;;;;;;5034955;28;20051;-80
2023/01/14 13:03:32;;;;;;;9.90;1.67;;;;;;;;;;5034657;28;20045;-79
2023/01/14 13:06:06;;;;;;;10.68;1.85;;;;;;;;;;5035618;28;20057;-80
2023/01/14 13:08:33;;;;;;;13.55;1.60;;;;;;;;;;5035685;28;20136;-80
2023/01/14 13:11:11;;;;;;;8.82;2.55;;;;;;;;;;5034739;28;20061;-79
2023/01/14 13:13:41;;;;;;;15.05;3.47;;;;;;;;;;5035052;28;20056;-80
2023/01/14 13:16:42;;;;;;;13.00;2.53;;;;;;;;;;5034671;28;20593;-80
2023/01/14 13:19:24;;;;;;;15.18;1.67;;;;;;;;;;4953567;28;20043;-80
2023/01/14 13:21:53;;;;;;;13.93;1.50;;;;;;;;;;5026931;28;20054;-79
2023/01/14 13:24:32;;;;;;;14.27;1.52;;;;;;;;;;5032146;28;20049;-79
2023/01/14 13:27:00;;;;;;;11.32;1.60;;;;;;;;;;5034183;28;20502;-79
2023/01/14 13:29:30;;;;;;;8.35;1.70;;;;;;;;;;5034730;28;20056;-78
2023/01/14 13:31:58;;;;;;;10.38;1.67;;;;;;;;;;5036240;28;20056;-78
2023/01/14 13:34:26;;;;;;;11.27;2.47;;;;;;;;;;5039971;28;20242;-79
2023/01/14 13:36:55;;;;;;;10.02;2.30;;;;;;;;;;5037018;28;20136;-80
2023/01/14 13:39:23;;;;;;;8.38;1.77;;;;;;;;;;5036388;28;20113;-79
2023/01/14 13:41:51;;;;;;;14.32;2.42;;;;;;;;;;5039895;28;20052;-80
2023/01/14 13:44:32;;;;;;;6.20;1.45;;;;;;;;;;5034752;28;20048;-79
2023/01/14 13:47:00;;;;;;;13.63;2.20;;;;;;;;;;5034327;28;20509;-78
2023/01/14 13:49:40;;;;;;;8.73;1.63;;;;;;;;;;5031652;28;20049;-80
2023/01/14 13:52:13;;;;;;;4.57;1.85;;;;;;;;;;5016674;28;20046;-79
2023/01/14 13:54:41;;;;;;;7.43;1.52;;;;;;;;;;5012638;28;20145;-81
2023/01/14 13:57:10;;;;;;;3.90;1.15;;;;;;;;;;5013707;28;20050;-80
2023/01/14 13:59:38;;;;;;;4.10;1.17;;;;;;;;;;5012227;28;20049;-79
2023/01/14 14:02:23;;;;;;;4.05;1.10;;;;;;;;;;5014372;28;20061;-79
2023/01/14 14:04:55;;;;;;;5.10;0.95;;;;;;;;;;5014135;28;20046;-79
2023/01/14 14:07:41;;;;;;;9.68;1.95;;;;;;;;;;5013491;28;20053;-79
2023/01/14 14:10:09;;;;;;;4.03;1.33;;;;;;;;;;5020523;28;20056;-81
2023/01/14 14:15:24;;;;;;;8.45;1.35;;;;;;;;;;5015897;28;20057;-79
2023/01/14 14:17:58;;;;;;;4.30;0.77;;;;;;;;;;5022932;28;20109;-80
2023/01/14 14:20:31;;;;;;;5.50;0.90;;;;;;;;;;5029946;28;20084;-78
2023/01/14 14:23:02;;;;;;;7.38;1.10;;;;;;;;;;5016320;28;20443;-80
2023/01/14 14:25:37;;;;;;;5.95;1.10;;;;;;;;;;5013535;28;20046;-79
2023/01/14 14:28:08;;;;;;;4.20;1.00;;;;;;;;;;5012862;28;20414;-80
2023/01/14 14:30:44;;;;;;;5.60;0.95;;;;;;;;;;5012040;28;20057;-78
2023/01/14 14:33:30;;;;;;;6.38;0.93;;;;;;;;;;5011029;28;20144;-78
2023/01/14 14:35:56;;;;;;;6.78;1.13;;;;;;;;;;5012108;28;20522;-79
2023/01/14 14:38:24;;;;;;;3.97;1.02;;;;;;;;;;5011194;28;20109;-80
2023/01/14 14:40:50;;;;;;;5.22;0.80;;;;;;;;;;5010456;28;20108;-78
2023/01/14 14:43:21;;;;;;;7.05;1.80;;;;;;;;;;5011941;28;20050;-80
2023/01/14 14:45:58;;;;;;;5.97;1.63;;;;;;;;;;5012938;28;20080;-79
2023/01/14 14:48:28;;;;;;;5.63;1.10;;;;;;;;;;5015113;28;20041;-79
2023/01/14 14:50:55;;;;;;;3.25;0.80;;;;;;;;;;5017248;28;20061;-79
2023/01/14 14:53:29;;;;;;;3.42;0.77;;;;;;;;;;5010803;28;20057;-79
2023/01/14 14:55:57;;;;;;;3.53;0.80;;;;;;;;;;5016719;28;20491;-80
2023/01/14 14:58:23;;;;;;;4.05;1.08;;;;;;;;;;5014511;28;20069;-80
2023/01/14 15:00:54;;;;;;;3.35;0.80;;;;;;;;;;5014148;28;20052;-80
2023/01/14 15:03:22;;;;;;;4.20;1.17;;;;;;;;;;5014761;28;20117;-79
2023/01/14 15:05:48;;;;;;;2.97;0.90;;;;;;;;;;5014930;28;20064;-79
2023/01/14 15:08:18;;;;;;;4.80;1.00;;;;;;;;;;5013722;28;20057;-79
2023/01/14 15:10:45;;;;;;;3.97;1.10;;;;;;;;;;5014356;28;20060;-78
2023/01/14 15:13:16;;;;;;;4.32;0.90;;;;;;;;;;5013700;28;20077;-79
2023/01/14 15:15:42;;;;;;;6.18;1.10;;;;;;;;;;5013975;28;20442;-79
2023/01/14 15:18:27;;;;;;;3.47;1.10;;;;;;;;;;5014787;28;20308;-80
2023/01/14 15:20:54;;;;;;;7.38;1.30;;;;;;;;;;5013910;28;20042;-79
2023/01/14 15:23:20;;;;;;;7.88;1.27;;;;;;;;;;5013766;28;20057;-79
2023/01/14 15:25:47;;;;;;;6.63;1.50;;;;;;;;;;5015842;28;20089;-79
2023/01/14 15:28:15;;;;;;;6.50;1.40;;;;;;;;;;5018172;28;20052;-79
2023/01/14 15:30:52;;;;;;;4.43;1.23;;;;;;;;;;5016562;28;20054;-79
2023/01/14 15:33:31;;;;;;;6.32;1.60;;;;;;;;;;5017474;28;20100;-79
2023/01/14 15:36:03;;;;;;;6.05;1.30;;;;;;;;;;5018152;28;20137;-79
2023/01/14 15:38:30;;;;;;;9.27;1.48;;;;;;;;;;5017922;28;20589;-80
2023/01/14 15:40:57;;;;;;;6.63;1.33;;;;;;;;;;5017531;28;20046;-79